createdAt,value
2019-04-29T00:00:33.210Z,1015.54
2019-04-29T00:01:33.206Z,1015.53
2019-04-29T00:02:33.199Z,1015.52
2019-04-29T00:03:33.195Z,1015.50
2019-04-29T00:04:33.187Z,1015.48
2019-04-29T00:05:33.183Z,1015.46
2019-04-29T00:06:33.174Z,1015.49
2019-04-29T00:07:33.171Z,1015.51
2019-04-29T00:08:33.163Z,1015.51
2019-04-29T00:09:33.155Z,1015.50
2019-04-29T00:10:33.149Z,1015.44
2019-04-29T00:11:33.142Z,1015.45
2019-04-29T00:12:33.142Z,1015.42
2019-04-29T00:13:33.133Z,1015.45
2019-04-29T00:14:33.123Z,1015.38
2019-04-29T00:15:33.116Z,1015.39
2019-04-29T00:16:33.115Z,1015.39
2019-04-29T00:17:33.106Z,1015.40
2019-04-29T00:18:33.098Z,1015.38
2019-04-29T00:19:35.971Z,1015.35
2019-04-29T00:20:33.086Z,1015.37
2019-04-29T00:21:33.081Z,1015.42
2019-04-29T00:22:33.078Z,1015.41
2019-04-29T00:23:33.066Z,1015.41
2019-04-29T00:24:33.062Z,1015.43
2019-04-29T00:25:33.054Z,1015.40
2019-04-29T00:26:33.053Z,1015.40
2019-04-29T00:27:33.040Z,1015.43
2019-04-29T00:28:33.033Z,1015.42
2019-04-29T00:29:33.036Z,1015.42
2019-04-29T00:30:33.026Z,1015.42
2019-04-29T00:31:33.016Z,1015.38
2019-04-29T00:32:33.014Z,1015.39
2019-04-29T00:33:33.004Z,1015.39
2019-04-29T00:34:32.998Z,1015.38
2019-04-29T00:35:32.992Z,1015.39
2019-04-29T00:36:32.985Z,1015.39
2019-04-29T00:37:32.994Z,1015.39
2019-04-29T00:38:32.975Z,1015.44
2019-04-29T00:39:32.969Z,1015.44
2019-04-29T00:40:32.959Z,1015.43
2019-04-29T00:41:32.958Z,1015.42
2019-04-29T00:42:32.949Z,1015.41
2019-04-29T00:43:32.944Z,1015.39
2019-04-29T00:44:32.937Z,1015.37
2019-04-29T00:45:32.930Z,1015.35
2019-04-29T00:46:32.922Z,1015.38
2019-04-29T00:47:32.917Z,1015.35
2019-04-29T00:48:32.910Z,1015.37
2019-04-29T00:49:32.907Z,1015.32
2019-04-29T00:50:32.895Z,1015.30
2019-04-29T00:51:32.892Z,1015.31
2019-04-29T00:52:32.888Z,1015.33
2019-04-29T00:53:32.881Z,1015.35
2019-04-29T00:54:32.879Z,1015.33
2019-04-29T00:55:32.871Z,1015.34
2019-04-29T00:56:32.862Z,1015.36
2019-04-29T00:57:32.859Z,1015.35
2019-04-29T00:58:32.852Z,1015.37
2019-04-29T00:59:32.842Z,1015.38
2019-04-29T01:00:32.834Z,1015.37
2019-04-29T01:01:32.839Z,1015.36
2019-04-29T01:02:32.822Z,1015.41
2019-04-29T01:03:32.819Z,1015.36
2019-04-29T01:04:32.814Z,1015.35
2019-04-29T01:05:32.806Z,1015.38
2019-04-29T01:06:32.806Z,1015.41
2019-04-29T01:07:32.796Z,1015.43
2019-04-29T01:08:32.785Z,1015.41
2019-04-29T01:09:32.784Z,1015.44
2019-04-29T01:10:32.772Z,1015.43
2019-04-29T01:11:32.767Z,1015.44
2019-04-29T01:12:32.758Z,1015.41
2019-04-29T01:13:32.756Z,1015.44
2019-04-29T01:14:32.748Z,1015.43
2019-04-29T01:15:32.743Z,1015.42
2019-04-29T01:16:32.736Z,1015.43
2019-04-29T01:17:32.728Z,1015.39
2019-04-29T01:18:32.727Z,1015.47
2019-04-29T01:19:32.761Z,1015.42
2019-04-29T01:20:32.710Z,1015.45
2019-04-29T01:21:32.702Z,1015.45
2019-04-29T01:22:32.696Z,1015.44
2019-04-29T01:23:32.692Z,1015.41
2019-04-29T01:24:32.684Z,1015.43
2019-04-29T01:25:32.677Z,1015.43
2019-04-29T01:26:32.670Z,1015.39
2019-04-29T01:27:32.666Z,1015.37
2019-04-29T01:28:32.658Z,1015.37
2019-04-29T01:29:32.659Z,1015.37
2019-04-29T01:30:32.644Z,1015.36
2019-04-29T01:31:32.641Z,1015.35
2019-04-29T01:32:32.685Z,1015.35
2019-04-29T01:33:32.629Z,1015.34
2019-04-29T01:34:32.624Z,1015.30
2019-04-29T01:35:32.615Z,1015.32
2019-04-29T01:36:32.608Z,1015.30
2019-04-29T01:37:32.604Z,1015.29
2019-04-29T01:38:32.597Z,1015.27
2019-04-29T01:39:32.589Z,1015.31
2019-04-29T01:40:32.582Z,1015.26
2019-04-29T01:41:32.588Z,1015.24
2019-04-29T01:42:32.567Z,1015.27
2019-04-29T01:43:32.560Z,1015.22
2019-04-29T01:44:32.557Z,1015.14
2019-04-29T01:45:32.551Z,1015.17
2019-04-29T01:46:32.545Z,1015.17
2019-04-29T01:47:32.535Z,1015.17
2019-04-29T01:48:32.529Z,1015.13
2019-04-29T01:49:32.527Z,1015.16
2019-04-29T01:50:32.518Z,1015.14
2019-04-29T01:51:32.507Z,1015.15
2019-04-29T01:52:32.504Z,1015.16
2019-04-29T01:53:32.496Z,1015.12
2019-04-29T01:54:32.491Z,1015.12
2019-04-29T01:55:32.490Z,1015.12
2019-04-29T01:56:32.478Z,1015.11
2019-04-29T01:57:32.473Z,1015.13
2019-04-29T01:58:32.466Z,1015.14
2019-04-29T01:59:32.457Z,1015.11
2019-04-29T02:00:32.459Z,1015.13
2019-04-29T02:01:32.458Z,1015.12
2019-04-29T02:02:32.441Z,1015.13
2019-04-29T02:03:32.432Z,1015.11
2019-04-29T02:04:32.434Z,1015.08
2019-04-29T02:05:32.419Z,1015.06
2019-04-29T02:06:32.417Z,1015.06
2019-04-29T02:07:32.405Z,1015.07
2019-04-29T02:08:32.399Z,1015.07
2019-04-29T02:09:32.391Z,1015.08
2019-04-29T02:10:32.387Z,1015.06
2019-04-29T02:11:32.379Z,1015.06
2019-04-29T02:12:32.373Z,1015.07
2019-04-29T02:13:32.368Z,1015.05
2019-04-29T02:14:32.359Z,1015.07
2019-04-29T02:15:32.352Z,1015.03
2019-04-29T02:16:32.354Z,1015.00
2019-04-29T02:17:32.339Z,1014.99
2019-04-29T02:18:32.334Z,1015.00
2019-04-29T02:19:32.324Z,1014.99
2019-04-29T02:20:32.322Z,1014.96
2019-04-29T02:21:32.314Z,1014.95
2019-04-29T02:22:32.309Z,1014.93
2019-04-29T02:23:32.299Z,1014.94
2019-04-29T02:24:32.295Z,1014.95
2019-04-29T02:25:32.288Z,1014.95
2019-04-29T02:26:32.288Z,1014.96
2019-04-29T02:27:32.272Z,1014.94
2019-04-29T02:28:32.277Z,1014.91
2019-04-29T02:29:32.262Z,1014.91
2019-04-29T02:30:32.259Z,1014.89
2019-04-29T02:31:32.253Z,1014.84
2019-04-29T02:32:32.248Z,1014.80
2019-04-29T02:33:32.252Z,1014.85
2019-04-29T02:34:32.229Z,1014.83
2019-04-29T02:35:32.221Z,1014.81
2019-04-29T02:36:32.216Z,1014.75
2019-04-29T02:37:32.210Z,1014.78
2019-04-29T02:38:32.202Z,1014.73
2019-04-29T02:39:32.195Z,1014.73
2019-04-29T02:40:32.189Z,1014.71
2019-04-29T02:41:32.180Z,1014.76
2019-04-29T02:42:32.175Z,1014.74
2019-04-29T02:43:32.169Z,1014.69
2019-04-29T02:44:32.163Z,1014.70
2019-04-29T02:45:32.154Z,1014.68
2019-04-29T02:46:32.149Z,1014.68
2019-04-29T02:47:32.139Z,1014.63
2019-04-29T02:48:34.657Z,1014.59
2019-04-29T02:49:32.129Z,1014.60
2019-04-29T02:50:32.125Z,1014.56
2019-04-29T02:51:32.115Z,1014.55
2019-04-29T02:52:32.109Z,1014.60
2019-04-29T02:53:32.100Z,1014.53
2019-04-29T02:54:32.092Z,1014.53
2019-04-29T02:55:32.091Z,1014.50
2019-04-29T02:56:32.080Z,1014.52
2019-04-29T02:57:32.075Z,1014.49
2019-04-29T02:58:32.066Z,1014.47
2019-04-29T02:59:32.059Z,1014.49
2019-04-29T03:00:32.058Z,1014.49
2019-04-29T03:01:32.055Z,1014.43
2019-04-29T03:02:32.039Z,1014.45
2019-04-29T03:03:32.037Z,1014.52
2019-04-29T03:04:32.053Z,1014.52
2019-04-29T03:05:32.052Z,1014.47
2019-04-29T03:06:32.014Z,1014.54
2019-04-29T03:07:32.007Z,1014.51
2019-04-29T03:08:32.000Z,1014.49
2019-04-29T03:09:31.999Z,1014.47
2019-04-29T03:10:31.986Z,1014.48
2019-04-29T03:11:31.984Z,1014.48
2019-04-29T03:12:31.974Z,1014.49
2019-04-29T03:13:31.966Z,1014.50
2019-04-29T03:14:31.963Z,1014.47
2019-04-29T03:15:31.955Z,1014.51
2019-04-29T03:16:31.949Z,1014.49
2019-04-29T03:17:31.945Z,1014.51
2019-04-29T03:18:31.930Z,1014.47
2019-04-29T03:19:31.932Z,1014.45
2019-04-29T03:20:31.921Z,1014.46
2019-04-29T03:21:31.916Z,1014.41
2019-04-29T03:22:31.909Z,1014.42
2019-04-29T03:23:31.900Z,1014.39
2019-04-29T03:24:31.906Z,1014.42
2019-04-29T03:25:31.888Z,1014.36
2019-04-29T03:26:31.878Z,1014.40
2019-04-29T03:27:31.887Z,1014.37
2019-04-29T03:28:31.870Z,1014.37
2019-04-29T03:29:31.863Z,1014.38
2019-04-29T03:30:31.857Z,1014.35
2019-04-29T03:31:38.762Z,1014.35
2019-04-29T03:32:31.841Z,1014.32
2019-04-29T03:33:31.833Z,1014.34
2019-04-29T03:34:31.826Z,1014.32
2019-04-29T03:35:31.827Z,1014.29
2019-04-29T03:36:31.812Z,1014.28
2019-04-29T03:37:31.807Z,1014.27
2019-04-29T03:38:31.799Z,1014.26
2019-04-29T03:39:31.795Z,1014.21
2019-04-29T03:40:31.782Z,1014.24
2019-04-29T03:41:31.778Z,1014.20
2019-04-29T03:42:31.771Z,1014.19
2019-04-29T03:43:31.762Z,1014.17
2019-04-29T03:44:31.758Z,1014.14
2019-04-29T03:45:31.758Z,1014.17
2019-04-29T03:46:31.742Z,1014.19
2019-04-29T03:47:31.735Z,1014.10
2019-04-29T03:48:31.736Z,1014.12
2019-04-29T03:49:31.723Z,1014.13
2019-04-29T03:50:31.716Z,1014.11
2019-04-29T03:51:31.711Z,1014.08
2019-04-29T03:52:31.702Z,1014.13
2019-04-29T03:53:31.697Z,1014.11
2019-04-29T03:54:31.689Z,1014.05
2019-04-29T03:55:39.938Z,1014.08
2019-04-29T03:56:31.675Z,1014.09
2019-04-29T03:57:31.671Z,1014.09
2019-04-29T03:58:31.663Z,1014.08
2019-04-29T03:59:31.654Z,1014.09
2019-04-29T04:00:31.650Z,1014.09
2019-04-29T04:01:31.645Z,1014.06
2019-04-29T04:02:31.636Z,1014.09
2019-04-29T04:03:31.633Z,1014.11
2019-04-29T04:04:31.622Z,1014.10
2019-04-29T04:05:31.623Z,1014.10
2019-04-29T04:06:31.612Z,1014.07
2019-04-29T04:07:31.602Z,1014.08
2019-04-29T04:08:31.595Z,1014.02
2019-04-29T04:09:31.595Z,1014.05
2019-04-29T04:10:31.581Z,1014.04
2019-04-29T04:11:31.576Z,1013.99
2019-04-29T04:12:31.567Z,1013.97
2019-04-29T04:13:31.565Z,1013.96
2019-04-29T04:14:31.554Z,1013.92
2019-04-29T04:15:31.544Z,1013.89
2019-04-29T04:16:31.541Z,1013.85
2019-04-29T04:17:31.534Z,1013.85
2019-04-29T04:18:31.527Z,1013.88
2019-04-29T04:19:31.524Z,1013.88
2019-04-29T04:20:31.516Z,1013.87
2019-04-29T04:21:31.505Z,1013.90
2019-04-29T04:22:31.503Z,1013.90
2019-04-29T04:23:31.495Z,1013.87
2019-04-29T04:24:31.491Z,1013.90
2019-04-29T04:25:31.484Z,1013.94
2019-04-29T04:26:31.471Z,1013.93
2019-04-29T04:27:31.464Z,1013.94
2019-04-29T04:28:31.463Z,1013.92
2019-04-29T04:29:31.454Z,1013.93
2019-04-29T04:30:31.458Z,1013.92
2019-04-29T04:31:31.438Z,1013.94
2019-04-29T04:32:31.428Z,1013.90
2019-04-29T04:33:31.427Z,1013.89
2019-04-29T04:34:31.422Z,1013.95
2019-04-29T04:35:31.413Z,1013.89
2019-04-29T04:36:31.404Z,1013.92
2019-04-29T04:37:31.399Z,1013.91
2019-04-29T04:38:31.393Z,1013.91
2019-04-29T04:39:31.388Z,1013.90
2019-04-29T04:40:31.378Z,1013.89
2019-04-29T04:41:31.416Z,1013.87
2019-04-29T04:42:31.365Z,1013.91
2019-04-29T04:43:31.358Z,1013.86
2019-04-29T04:44:31.349Z,1013.86
2019-04-29T04:45:31.342Z,1013.85
2019-04-29T04:46:31.364Z,1013.86
2019-04-29T04:47:31.331Z,1013.87
2019-04-29T04:48:31.324Z,1013.86
2019-04-29T04:49:31.316Z,1013.83
2019-04-29T04:50:31.314Z,1013.83
2019-04-29T04:51:31.302Z,1013.82
2019-04-29T04:52:31.300Z,1013.86
2019-04-29T04:53:31.290Z,1013.83
2019-04-29T04:54:31.632Z,1013.80
2019-04-29T04:55:31.275Z,1013.83
2019-04-29T04:56:31.270Z,1013.80
2019-04-29T04:57:31.264Z,1013.83
2019-04-29T04:58:31.255Z,1013.82
2019-04-29T04:59:31.251Z,1013.77
2019-04-29T05:00:31.243Z,1013.72
2019-04-29T05:01:31.237Z,1013.73
2019-04-29T05:02:31.234Z,1013.71
2019-04-29T05:03:31.225Z,1013.69
2019-04-29T05:04:31.221Z,1013.72
2019-04-29T05:05:31.224Z,1013.72
2019-04-29T05:06:31.203Z,1013.67
2019-04-29T05:07:31.197Z,1013.73
2019-04-29T05:08:31.191Z,1013.67
2019-04-29T05:09:31.184Z,1013.64
2019-04-29T05:10:31.176Z,1013.67
2019-04-29T05:11:31.170Z,1013.69
2019-04-29T05:12:31.165Z,1013.72
2019-04-29T05:13:31.157Z,1013.73
2019-04-29T05:14:31.150Z,1013.69
2019-04-29T05:15:31.141Z,1013.69
2019-04-29T05:16:31.137Z,1013.67
2019-04-29T05:17:31.127Z,1013.68
2019-04-29T05:18:31.123Z,1013.69
2019-04-29T05:19:31.118Z,1013.68
2019-04-29T05:20:31.111Z,1013.71
2019-04-29T05:21:31.105Z,1013.71
2019-04-29T05:22:31.096Z,1013.67
2019-04-29T05:23:31.089Z,1013.67
2019-04-29T05:24:31.090Z,1013.65
2019-04-29T05:25:31.080Z,1013.71
2019-04-29T05:26:31.071Z,1013.74
2019-04-29T05:27:31.064Z,1013.73
2019-04-29T05:28:31.060Z,1013.73
2019-04-29T05:29:31.051Z,1013.69
2019-04-29T05:30:31.046Z,1013.74
2019-04-29T05:31:31.039Z,1013.77
2019-04-29T05:32:31.034Z,1013.77
2019-04-29T05:33:31.025Z,1013.77
2019-04-29T05:34:31.018Z,1013.79
2019-04-29T05:35:31.013Z,1013.81
2019-04-29T05:36:34.112Z,1013.82
2019-04-29T05:37:30.998Z,1013.80
2019-04-29T05:38:30.995Z,1013.81
2019-04-29T05:39:30.985Z,1013.81
2019-04-29T05:40:30.985Z,1013.80
2019-04-29T05:41:34.879Z,1013.79
2019-04-29T05:42:30.964Z,1013.79
2019-04-29T05:43:32.006Z,1013.76
2019-04-29T05:44:30.956Z,1013.76
2019-04-29T05:45:30.947Z,1013.78
2019-04-29T05:46:30.936Z,1013.70
2019-04-29T05:47:30.931Z,1013.79
2019-04-29T05:48:32.124Z,1013.81
2019-04-29T05:49:30.923Z,1013.79
2019-04-29T05:50:30.913Z,1013.77
2019-04-29T05:51:30.905Z,1013.81
2019-04-29T05:52:34.683Z,1013.80
2019-04-29T05:53:30.894Z,1013.81
2019-04-29T05:54:31.620Z,1013.76
2019-04-29T05:55:30.882Z,1013.80
2019-04-29T05:56:30.876Z,1013.78
2019-04-29T05:57:30.866Z,1013.76
2019-04-29T05:58:32.860Z,1013.82
2019-04-29T05:59:30.850Z,1013.81
2019-04-29T06:00:30.847Z,1013.80
2019-04-29T06:01:30.839Z,1013.85
2019-04-29T06:02:33.243Z,1013.87
2019-04-29T06:03:33.424Z,1013.82
2019-04-29T06:04:30.825Z,1013.88
2019-04-29T06:05:30.814Z,1013.81
2019-04-29T06:06:30.808Z,1013.91
2019-04-29T06:07:30.801Z,1013.88
2019-04-29T06:08:34.515Z,1013.92
2019-04-29T06:09:30.787Z,1013.91
2019-04-29T06:10:30.783Z,1013.95
2019-04-29T06:11:30.776Z,1013.81
2019-04-29T06:12:30.769Z,1013.93
2019-04-29T06:13:30.767Z,1013.94
2019-04-29T06:14:30.754Z,1013.91
2019-04-29T06:15:30.747Z,1013.91
2019-04-29T06:16:30.744Z,1013.88
2019-04-29T06:17:30.734Z,1013.91
2019-04-29T06:18:30.728Z,1013.90
2019-04-29T06:19:30.780Z,1013.91
2019-04-29T06:20:30.717Z,1013.91
2019-04-29T06:21:30.708Z,1013.83
2019-04-29T06:22:30.700Z,1013.87
2019-04-29T06:23:30.695Z,1013.90
2019-04-29T06:24:30.689Z,1013.85
2019-04-29T06:25:30.684Z,1013.86
2019-04-29T06:26:30.676Z,1013.88
2019-04-29T06:27:33.284Z,1013.85
2019-04-29T06:28:30.666Z,1013.87
2019-04-29T06:29:30.658Z,1013.82
2019-04-29T06:30:30.650Z,1013.78
2019-04-29T06:31:30.642Z,1013.73
2019-04-29T06:32:30.640Z,1013.68
2019-04-29T06:33:31.056Z,1013.68
2019-04-29T06:34:30.626Z,1013.70
2019-04-29T06:35:30.619Z,1013.75
2019-04-29T06:36:30.613Z,1013.72
2019-04-29T06:37:30.605Z,1013.77
2019-04-29T06:38:30.598Z,1013.73
2019-04-29T06:39:30.593Z,1013.77
2019-04-29T06:40:35.268Z,1013.74
2019-04-29T06:41:30.578Z,1013.70
2019-04-29T06:42:33.303Z,1013.69
2019-04-29T06:43:30.744Z,1013.67
2019-04-29T06:44:30.568Z,1013.63
2019-04-29T06:45:30.570Z,1013.58
2019-04-29T06:46:30.543Z,1013.58
2019-04-29T06:47:30.541Z,1013.59
2019-04-29T06:48:30.533Z,1013.60
2019-04-29T06:49:30.534Z,1013.51
2019-04-29T06:50:30.520Z,1013.54
2019-04-29T06:51:30.513Z,1013.49
2019-04-29T06:52:30.507Z,1013.52
2019-04-29T06:53:30.502Z,1013.47
2019-04-29T06:54:30.499Z,1013.49
2019-04-29T06:55:30.487Z,1013.49
2019-04-29T06:56:30.481Z,1013.43
2019-04-29T06:57:30.477Z,1013.44
2019-04-29T06:58:32.613Z,1013.49
2019-04-29T06:59:30.462Z,1013.49
2019-04-29T07:00:30.457Z,1013.51
2019-04-29T07:01:33.120Z,1013.46
2019-04-29T07:02:30.456Z,1013.44
2019-04-29T07:03:30.439Z,1013.46
2019-04-29T07:04:30.602Z,1013.48
2019-04-29T07:05:30.423Z,1013.52
2019-04-29T07:06:30.419Z,1013.57
2019-04-29T07:07:30.408Z,1013.61
2019-04-29T07:08:30.407Z,1013.56
2019-04-29T07:09:30.399Z,1013.63
2019-04-29T07:10:30.392Z,1013.62
2019-04-29T07:11:31.825Z,1013.55
2019-04-29T07:12:30.380Z,1013.59
2019-04-29T07:13:30.374Z,1013.59
2019-04-29T07:14:32.894Z,1013.55
2019-04-29T07:15:30.360Z,1013.59
2019-04-29T07:16:32.073Z,1013.51
2019-04-29T07:17:30.349Z,1013.57
2019-04-29T07:18:30.343Z,1013.62
2019-04-29T07:19:30.342Z,1013.58
2019-04-29T07:20:32.469Z,1013.64
2019-04-29T07:21:30.321Z,1013.63
2019-04-29T07:22:31.227Z,1013.61
2019-04-29T07:23:30.309Z,1013.65
2019-04-29T07:24:30.304Z,1013.65
2019-04-29T07:25:30.372Z,1013.64
2019-04-29T07:26:30.292Z,1013.57
2019-04-29T07:27:30.287Z,1013.58
2019-04-29T07:28:30.309Z,1013.60
2019-04-29T07:29:32.284Z,1013.58
2019-04-29T07:30:30.272Z,1013.59
2019-04-29T07:31:33.386Z,1013.63
2019-04-29T07:32:32.374Z,1013.60
2019-04-29T07:33:30.251Z,1013.61
2019-04-29T07:34:33.753Z,1013.57
2019-04-29T07:35:30.239Z,1013.65
2019-04-29T07:36:30.231Z,1013.62
2019-04-29T07:37:34.186Z,1013.63
2019-04-29T07:38:40.542Z,1013.68
2019-04-29T07:39:31.769Z,1013.64
2019-04-29T07:40:30.203Z,1013.62
2019-04-29T07:41:30.199Z,1013.59
2019-04-29T07:42:32.344Z,1013.64
2019-04-29T07:43:30.189Z,1013.61
2019-04-29T07:44:43.416Z,1013.63
2019-04-29T07:45:43.291Z,1013.52
2019-04-29T07:46:30.172Z,1013.58
2019-04-29T07:47:31.173Z,1013.59
2019-04-29T07:48:30.155Z,1013.57
2019-04-29T07:49:30.153Z,1013.61
2019-04-29T07:50:30.144Z,1013.62
2019-04-29T07:51:30.140Z,1013.61
2019-04-29T07:52:30.132Z,1013.55
2019-04-29T07:53:38.750Z,1013.55
2019-04-29T07:54:30.120Z,1013.56
2019-04-29T07:55:30.814Z,1013.61
2019-04-29T07:56:30.108Z,1013.61
2019-04-29T07:57:30.110Z,1013.60
2019-04-29T07:58:30.092Z,1013.55
2019-04-29T07:59:33.750Z,1013.55
2019-04-29T08:00:30.084Z,1013.48
2019-04-29T08:01:30.076Z,1013.52
2019-04-29T08:02:30.072Z,1013.53
2019-04-29T08:03:30.062Z,1013.48
2019-04-29T08:04:30.058Z,1013.56
2019-04-29T08:05:30.058Z,1013.52
2019-04-29T08:06:30.047Z,1013.54
2019-04-29T08:07:30.080Z,1013.53
2019-04-29T08:08:30.032Z,1013.51
2019-04-29T08:09:30.028Z,1013.49
2019-04-29T08:10:30.019Z,1013.49
2019-04-29T08:11:30.016Z,1013.48
2019-04-29T08:12:30.011Z,1013.45
2019-04-29T08:13:30.005Z,1013.45
2019-04-29T08:14:29.996Z,1013.44
2019-04-29T08:15:31.936Z,1013.46
2019-04-29T08:16:29.985Z,1013.49
2019-04-29T08:17:29.986Z,1013.47
2019-04-29T08:18:29.972Z,1013.51
2019-04-29T08:19:31.538Z,1013.56
2019-04-29T08:20:29.960Z,1013.48
2019-04-29T08:21:29.952Z,1013.59
2019-04-29T08:22:29.945Z,1013.59
2019-04-29T08:23:33.083Z,1013.61
2019-04-29T08:24:29.936Z,1013.63
2019-04-29T08:25:29.931Z,1013.63
2019-04-29T08:26:33.748Z,1013.60
2019-04-29T08:27:39.845Z,1013.62
2019-04-29T08:28:29.914Z,1013.62
2019-04-29T08:29:30.949Z,1013.65
2019-04-29T08:30:29.899Z,1013.57
2019-04-29T08:31:29.892Z,1013.63
2019-04-29T08:32:31.639Z,1013.62
2019-04-29T08:33:29.880Z,1013.63
2019-04-29T08:34:29.873Z,1013.61
2019-04-29T08:35:32.783Z,1013.57
2019-04-29T08:36:29.860Z,1013.55
2019-04-29T08:37:29.854Z,1013.58
2019-04-29T08:38:29.848Z,1013.57
2019-04-29T08:39:31.159Z,1013.53
2019-04-29T08:40:29.833Z,1013.50
2019-04-29T08:41:30.073Z,1013.55
2019-04-29T08:42:29.822Z,1013.56
2019-04-29T08:43:29.818Z,1013.60
2019-04-29T08:44:29.812Z,1013.59
2019-04-29T08:45:29.806Z,1013.55
2019-04-29T08:46:29.797Z,1013.56
2019-04-29T08:47:31.627Z,1013.57
2019-04-29T08:48:29.783Z,1013.55
2019-04-29T08:49:29.784Z,1013.60
2019-04-29T08:50:29.786Z,1013.62
2019-04-29T08:51:29.764Z,1013.58
2019-04-29T08:52:29.760Z,1013.59
2019-04-29T08:53:29.755Z,1013.56
2019-04-29T08:54:29.746Z,1013.61
2019-04-29T08:55:30.888Z,1013.55
2019-04-29T08:56:29.732Z,1013.56
2019-04-29T08:57:31.906Z,1013.55
2019-04-29T08:58:29.721Z,1013.58
2019-04-29T08:59:29.714Z,1013.56
2019-04-29T09:00:29.710Z,1013.48
2019-04-29T09:01:34.051Z,1013.46
2019-04-29T09:02:34.813Z,1013.49
2019-04-29T09:03:40.195Z,1013.53
2019-04-29T09:04:33.277Z,1013.55
2019-04-29T09:05:29.680Z,1013.60
2019-04-29T09:06:32.613Z,1013.55
2019-04-29T09:07:29.665Z,1013.57
2019-04-29T09:08:32.978Z,1013.49
2019-04-29T09:09:29.871Z,1013.53
2019-04-29T09:10:33.002Z,1013.54
2019-04-29T09:11:29.639Z,1013.49
2019-04-29T09:12:29.684Z,1013.51
2019-04-29T09:13:29.628Z,1013.45
2019-04-29T09:14:29.624Z,1013.44
2019-04-29T09:15:29.612Z,1013.51
2019-04-29T09:16:29.611Z,1013.50
2019-04-29T09:17:29.603Z,1013.49
2019-04-29T09:18:29.600Z,1013.54
2019-04-29T09:19:29.606Z,1013.54
2019-04-29T09:20:29.584Z,1013.51
2019-04-29T09:21:29.579Z,1013.49
2019-04-29T09:22:29.578Z,1013.48
2019-04-29T09:23:29.566Z,1013.51
2019-04-29T09:24:29.562Z,1013.45
2019-04-29T09:25:29.560Z,1013.47
2019-04-29T09:26:29.555Z,1013.49
2019-04-29T09:27:29.543Z,1013.39
2019-04-29T09:28:29.882Z,1013.43
2019-04-29T09:29:29.532Z,1013.43
2019-04-29T09:30:29.531Z,1013.41
2019-04-29T09:31:29.520Z,1013.36
2019-04-29T09:32:29.513Z,1013.32
2019-04-29T09:33:29.507Z,1013.36
2019-04-29T09:34:29.502Z,1013.31
2019-04-29T09:35:33.866Z,1013.31
2019-04-29T09:36:29.488Z,1013.27
2019-04-29T09:37:29.482Z,1013.24
2019-04-29T09:38:32.586Z,1013.24
2019-04-29T09:39:42.405Z,1013.27
2019-04-29T09:40:29.462Z,1013.25
2019-04-29T09:41:30.647Z,1013.19
2019-04-29T09:42:30.997Z,1013.23
2019-04-29T09:43:32.635Z,1013.19
2019-04-29T09:44:29.439Z,1013.22
2019-04-29T09:45:29.433Z,1013.18
2019-04-29T09:46:30.046Z,1013.16
2019-04-29T09:47:29.420Z,1013.10
2019-04-29T09:48:29.420Z,1013.13
2019-04-29T09:49:29.410Z,1013.11
2019-04-29T09:50:29.421Z,1013.10
2019-04-29T09:51:29.759Z,1013.07
2019-04-29T09:52:29.391Z,1012.98
2019-04-29T09:53:29.384Z,1013.09
2019-04-29T09:54:29.378Z,1013.11
2019-04-29T09:55:29.373Z,1013.09
2019-04-29T09:56:29.367Z,1013.09
2019-04-29T09:57:29.364Z,1013.05
2019-04-29T09:58:29.353Z,1013.08
2019-04-29T09:59:29.351Z,1013.05
2019-04-29T10:00:29.358Z,1013.04
2019-04-29T10:01:29.358Z,1013.05
2019-04-29T10:02:31.361Z,1013.00
2019-04-29T10:03:29.325Z,1012.99
2019-04-29T10:04:29.379Z,1013.07
2019-04-29T10:05:29.309Z,1013.03
2019-04-29T10:06:29.304Z,1013.06
2019-04-29T10:07:29.300Z,1013.04
2019-04-29T10:08:29.292Z,1013.06
2019-04-29T10:09:29.285Z,1013.09
2019-04-29T10:10:29.280Z,1013.07
2019-04-29T10:11:29.271Z,1012.93
2019-04-29T10:12:29.267Z,1013.07
2019-04-29T10:13:29.261Z,1013.05
2019-04-29T10:14:29.272Z,1013.09
2019-04-29T10:15:29.247Z,1013.09
2019-04-29T10:16:31.651Z,1013.12
2019-04-29T10:17:29.246Z,1013.15
2019-04-29T10:18:29.789Z,1013.12
2019-04-29T10:19:29.223Z,1013.12
2019-04-29T10:20:29.217Z,1013.13
2019-04-29T10:21:29.213Z,1013.18
2019-04-29T10:22:29.203Z,1013.14
2019-04-29T10:23:29.202Z,1013.17
2019-04-29T10:24:29.196Z,1013.13
2019-04-29T10:25:29.192Z,1013.13
2019-04-29T10:26:29.180Z,1013.20
2019-04-29T10:27:29.176Z,1013.16
2019-04-29T10:28:29.172Z,1013.17
2019-04-29T10:29:29.166Z,1013.14
2019-04-29T10:30:31.147Z,1013.19
2019-04-29T10:31:29.155Z,1013.19
2019-04-29T10:32:29.146Z,1013.13
2019-04-29T10:33:29.141Z,1013.17
2019-04-29T10:34:31.642Z,1013.12
2019-04-29T10:35:29.136Z,1013.14
2019-04-29T10:36:29.123Z,1013.18
2019-04-29T10:37:31.369Z,1013.18
2019-04-29T10:38:29.109Z,1013.13
2019-04-29T10:39:29.108Z,1013.14
2019-04-29T10:40:29.099Z,1013.01
2019-04-29T10:41:29.100Z,1013.09
2019-04-29T10:42:29.089Z,1013.11
2019-04-29T10:43:29.087Z,1013.10
2019-04-29T10:44:29.078Z,1013.08
2019-04-29T10:45:29.071Z,1013.11
2019-04-29T10:46:29.062Z,1013.10
2019-04-29T10:47:29.058Z,1013.17
2019-04-29T10:48:29.051Z,1013.14
2019-04-29T10:49:29.047Z,1013.17
2019-04-29T10:50:29.042Z,1013.19
2019-04-29T10:51:29.044Z,1013.17
2019-04-29T10:52:29.036Z,1013.19
2019-04-29T10:53:29.032Z,1013.23
2019-04-29T10:54:29.018Z,1013.21
2019-04-29T10:55:29.946Z,1013.14
2019-04-29T10:56:29.009Z,1013.15
2019-04-29T10:57:29.454Z,1013.14
2019-04-29T10:58:31.196Z,1013.15
2019-04-29T10:59:35.589Z,1013.16
2019-04-29T11:00:28.985Z,1013.17
2019-04-29T11:01:29.569Z,1013.14
2019-04-29T11:02:28.975Z,1013.18
2019-04-29T11:03:28.970Z,1013.18
2019-04-29T11:04:31.677Z,1013.15
2019-04-29T11:05:28.961Z,1013.15
2019-04-29T11:06:31.279Z,1013.25
2019-04-29T11:07:28.944Z,1013.24
2019-04-29T11:08:28.942Z,1013.23
2019-04-29T11:09:28.935Z,1013.20
2019-04-29T11:10:28.931Z,1013.24
2019-04-29T11:11:28.933Z,1013.23
2019-04-29T11:12:28.920Z,1013.20
2019-04-29T11:13:28.914Z,1013.21
2019-04-29T11:14:28.917Z,1013.19
2019-04-29T11:15:32.426Z,1013.21
2019-04-29T11:16:45.330Z,1013.19
2019-04-29T11:17:28.895Z,1013.16
2019-04-29T11:18:28.885Z,1013.15
2019-04-29T11:19:28.880Z,1013.20
2019-04-29T11:20:28.880Z,1013.18
2019-04-29T11:21:29.366Z,1013.20
2019-04-29T11:22:28.864Z,1013.20
2019-04-29T11:23:28.860Z,1013.16
2019-04-29T11:24:28.857Z,1013.15
2019-04-29T11:25:28.849Z,1013.17
2019-04-29T11:26:28.843Z,1013.18
2019-04-29T11:27:28.837Z,1013.17
2019-04-29T11:28:28.835Z,1013.21
2019-04-29T11:29:29.208Z,1013.16
2019-04-29T11:30:28.821Z,1013.19
2019-04-29T11:31:28.820Z,1013.21
2019-04-29T11:32:29.225Z,1013.15
2019-04-29T11:33:28.808Z,1013.18
2019-04-29T11:34:28.804Z,1013.19
2019-04-29T11:35:29.841Z,1013.17
2019-04-29T11:36:28.797Z,1013.20
2019-04-29T11:37:28.791Z,1013.19
2019-04-29T11:38:33.345Z,1013.18
2019-04-29T11:39:28.775Z,1013.17
2019-04-29T11:40:42.537Z,1013.17
2019-04-29T11:41:28.768Z,1013.16
2019-04-29T11:42:31.914Z,1013.13
2019-04-29T11:43:28.755Z,1013.14
2019-04-29T11:44:31.744Z,1013.14
2019-04-29T11:45:28.749Z,1013.16
2019-04-29T11:46:28.742Z,1013.10
2019-04-29T11:47:28.739Z,1013.10
2019-04-29T11:48:28.733Z,1013.09
2019-04-29T11:49:28.728Z,1013.10
2019-04-29T11:50:28.722Z,1013.11
2019-04-29T11:51:28.716Z,1013.16
2019-04-29T11:52:29.284Z,1013.16
2019-04-29T11:53:28.710Z,1013.17
2019-04-29T11:54:28.701Z,1013.11
2019-04-29T11:55:28.695Z,1013.17
2019-04-29T11:56:28.694Z,1013.12
2019-04-29T11:57:40.378Z,1013.10
2019-04-29T11:58:28.682Z,1013.11
2019-04-29T11:59:28.839Z,1013.08
2019-04-29T12:00:28.673Z,1013.12
2019-04-29T12:01:38.401Z,1013.10
2019-04-29T12:02:44.644Z,1013.07
2019-04-29T12:03:28.656Z,1013.08
2019-04-29T12:04:33.292Z,1013.10
2019-04-29T12:05:28.651Z,1013.12